Time;durP1;ratioP1;P1;durP2;ratioP2;P2;SDS_P1;SDS_P2;PMS_P1;PMS_P2;Temp;Humidity;BMP_temperature;BMP_pressure;BME280_temperature;BME280_humidity;BME280_pressure;Samples;Min_cycle;Max_cycle;Signal;HPM_P1;HPM_P2
2021/09/19 00:01:16;;;;;;;5.10;4.20;;;12.10;86.90;;;;;;5042023;28;20028;-68
2021/09/19 00:03:42;;;;;;;5.20;3.93;;;12.00;86.80;;;;;;5042368;28;20074;-68
2021/09/19 00:06:08;;;;;;;4.85;4.00;;;12.10;86.90;;;;;;5061690;28;20067;-68
2021/09/19 00:08:34;;;;;;;4.93;3.67;;;12.00;86.90;;;;;;5062248;28;20100;-68
2021/09/19 00:10:59;;;;;;;4.20;3.13;;;12.10;87.00;;;;;;5060893;28;20029;-68
2021/09/19 00:13:25;;;;;;;6.30;3.47;;;12.10;87.30;;;;;;5059719;28;20442;-68
2021/09/19 00:15:51;;;;;;;3.88;3.05;;;12.10;87.60;;;;;;5062239;28;20036;-68
2021/09/19 00:18:17;;;;;;;4.67;3.43;;;12.00;87.10;;;;;;5062202;28;20025;-68
2021/09/19 00:20:44;;;;;;;4.10;3.33;;;12.00;87.10;;;;;;5062007;28;20091;-68
2021/09/19 00:23:10;;;;;;;6.57;3.72;;;12.00;87.80;;;;;;5059583;28;20270;-68
2021/09/19 00:25:36;;;;;;;3.50;3.20;;;12.10;87.50;;;;;;5061964;28;20023;-68
2021/09/19 00:28:03;;;;;;;4.30;3.50;;;12.10;87.70;;;;;;5062037;28;20027;-68
2021/09/19 00:30:29;;;;;;;;;;;12.10;87.80;;;;;;5062479;28;20016;-68
2021/09/19 00:32:55;;;;;;;4.93;3.20;;;12.10;87.60;;;;;;5060469;28;20010;-68
2021/09/19 00:35:20;;;;;;;6.05;3.10;;;12.10;87.60;;;;;;5061899;28;20052;-68
2021/09/19 00:37:46;;;;;;;3.97;3.35;;;12.10;87.20;;;;;;5060963;28;20227;-68
2021/09/19 00:40:12;;;;;;;4.18;3.10;;;12.00;87.00;;;;;;5061696;28;20185;-68
2021/09/19 00:42:38;;;;;;;3.97;2.80;;;12.00;87.50;;;;;;5061725;28;20044;-68
2021/09/19 00:45:12;;;;;;;4.30;3.50;;;12.00;87.50;;;;;;5061943;28;20027;-68
2021/09/19 00:47:38;;;;;;;4.10;3.40;;;12.10;87.40;;;;;;5061886;28;20036;-68
2021/09/19 00:50:05;;;;;;;3.28;2.97;;;12.00;87.20;;;;;;5060615;28;20040;-68
2021/09/19 00:52:31;;;;;;;;;;;12.00;87.50;;;;;;5060889;28;20074;-68
2021/09/19 00:54:59;;;;;;;2.70;2.50;;;11.90;87.40;;;;;;5059171;28;19944;-68
2021/09/19 00:57:26;;;;;;;4.93;3.00;;;11.80;87.70;;;;;;5061966;28;20025;-68
2021/09/19 00:59:52;;;;;;;3.00;2.70;;;11.90;87.90;;;;;;5060735;28;20020;-68
2021/09/19 01:02:19;;;;;;;2.70;2.50;;;11.90;87.70;;;;;;5060556;28;20074;-68
2021/09/19 01:04:45;;;;;;;;;;;11.80;87.70;;;;;;5061018;28;20032;-68
2021/09/19 01:07:11;;;;;;;4.10;2.55;;;11.80;87.90;;;;;;5061607;28;19915;-68
2021/09/19 01:09:37;;;;;;;3.85;2.72;;;11.90;87.70;;;;;;5061451;28;20017;-68
2021/09/19 01:12:03;;;;;;;2.88;2.40;;;11.90;87.90;;;;;;5052931;28;20359;-68
2021/09/19 01:14:29;;;;;;;3.72;2.65;;;11.90;87.80;;;;;;5040506;28;20029;-68
2021/09/19 01:16:56;;;;;;;2.60;2.40;;;11.80;87.90;;;;;;5057591;28;20085;-68
2021/09/19 01:19:24;;;;;;;2.70;2.45;;;11.90;87.80;;;;;;5045501;28;20032;-68
2021/09/19 01:21:51;;;;;;;3.05;2.50;;;11.80;87.30;;;;;;5045537;28;20312;-68
2021/09/19 01:24:17;;;;;;;4.38;2.90;;;11.80;87.20;;;;;;5045053;28;20084;-68
2021/09/19 01:26:43;;;;;;;3.70;2.92;;;11.70;87.00;;;;;;5045255;28;20331;-68
2021/09/19 01:29:08;;;;;;;2.50;2.25;;;11.60;87.40;;;;;;5045359;28;20071;-68
2021/09/19 01:31:34;;;;;;;3.17;2.43;;;11.60;87.50;;;;;;5045279;28;20021;-68
2021/09/19 01:34:00;;;;;;;2.97;2.30;;;11.60;88.00;;;;;;5045209;28;20092;-68
2021/09/19 01:36:32;;;;;;;2.83;2.53;;;11.50;88.30;;;;;;5045183;28;20025;-68
2021/09/19 01:38:58;;;;;;;3.00;2.42;;;11.40;88.50;;;;;;5112670;22;20369;-68
2021/09/19 01:41:24;;;;;;;3.90;2.83;;;11.40;88.80;;;;;;5101301;28;20023;-68
2021/09/19 01:43:50;;;;;;;2.90;2.40;;;11.40;88.60;;;;;;5105288;28;20066;-68
2021/09/19 01:46:16;;;;;;;5.10;3.40;;;11.50;88.80;;;;;;5121053;28;20516;-68
2021/09/19 01:48:42;;;;;;;4.43;2.45;;;11.50;89.00;;;;;;5116633;28;20106;-67
2021/09/19 01:51:08;;;;;;;3.00;2.47;;;11.30;89.70;;;;;;5066897;28;20024;-68
2021/09/19 01:53:35;;;;;;;5.53;2.80;;;11.40;89.80;;;;;;5084791;28;20331;-68
2021/09/19 01:56:01;;;;;;;2.60;2.40;;;11.40;89.50;;;;;;5067128;28;20020;-68
2021/09/19 01:58:27;;;;;;;3.92;2.65;;;11.50;89.30;;;;;;5083062;28;20077;-68
2021/09/19 02:00:57;;;;;;;2.88;2.47;;;11.50;89.20;;;;;;5084504;28;20032;-68
2021/09/19 02:03:22;;;;;;;3.00;2.50;;;11.50;89.00;;;;;;5083530;28;20258;-68
2021/09/19 02:05:48;;;;;;;3.57;2.20;;;11.60;88.70;;;;;;5084320;28;20024;-68
2021/09/19 02:08:14;;;;;;;5.63;2.60;;;11.50;88.50;;;;;;5084459;28;20025;-68
2021/09/19 02:10:40;;;;;;;3.45;2.55;;;11.60;88.60;;;;;;5083366;28;20079;-68
2021/09/19 02:13:06;;;;;;;3.70;2.57;;;11.60;88.40;;;;;;5083315;28;20020;-68
2021/09/19 02:15:32;;;;;;;2.57;2.37;;;11.50;89.30;;;;;;5084407;28;20039;-68
2021/09/19 02:17:58;;;;;;;3.05;2.63;;;11.50;88.80;;;;;;5084340;28;20357;-67
2021/09/19 02:20:23;;;;;;;2.60;2.40;;;11.50;89.00;;;;;;5084374;28;20024;-68
2021/09/19 02:22:49;;;;;;;4.05;2.40;;;11.50;88.90;;;;;;5083377;28;20044;-68
2021/09/19 02:25:15;;;;;;;2.70;2.28;;;11.50;88.40;;;;;;5084303;28;20032;-68
2021/09/19 02:27:41;;;;;;;4.10;2.43;;;11.40;88.50;;;;;;5083534;28;20025;-68
2021/09/19 02:30:09;;;;;;;2.83;2.50;;;11.40;88.50;;;;;;5084177;28;20029;-68
2021/09/19 02:32:35;;;;;;;2.65;2.40;;;11.30;88.60;;;;;;5062076;28;20025;-69
2021/09/19 02:35:01;;;;;;;2.53;2.33;;;11.30;88.70;;;;;;5063943;28;20021;-68
2021/09/19 02:37:27;;;;;;;2.77;2.57;;;11.30;88.90;;;;;;5074319;28;20039;-67
2021/09/19 02:39:53;;;;;;;3.97;2.30;;;11.20;89.20;;;;;;5084159;28;20020;-68
2021/09/19 02:42:19;;;;;;;4.82;2.65;;;11.30;89.10;;;;;;5082598;28;20047;-68
2021/09/19 02:44:45;;;;;;;4.27;2.63;;;11.20;89.00;;;;;;5083924;28;20025;-68
2021/09/19 02:47:11;;;;;;;3.83;2.87;;;11.20;89.10;;;;;;5081785;28;20021;-68
2021/09/19 02:49:36;;;;;;;3.13;2.80;;;11.10;89.70;;;;;;5082703;28;20028;-68
2021/09/19 02:52:03;;;;;;;2.53;2.22;;;11.10;90.00;;;;;;5082474;28;20028;-68
2021/09/19 02:54:29;;;;;;;2.60;2.15;;;11.10;90.00;;;;;;5081718;28;20346;-67
2021/09/19 02:56:54;;;;;;;2.75;2.25;;;11.00;90.10;;;;;;5083594;28;20024;-68
2021/09/19 02:59:20;;;;;;;2.83;2.42;;;11.00;90.00;;;;;;5082580;28;20043;-68
2021/09/19 03:01:46;;;;;;;3.40;2.63;;;10.90;90.00;;;;;;5081812;28;20039;-68
2021/09/19 03:04:12;;;;;;;2.97;2.50;;;10.90;89.90;;;;;;5082887;28;20246;-68
2021/09/19 03:06:39;;;;;;;3.22;2.75;;;10.90;89.70;;;;;;5083196;28;20243;-68
2021/09/19 03:09:05;;;;;;;5.47;3.35;;;10.80;90.00;;;;;;5083432;28;20099;-68
2021/09/19 03:11:31;;;;;;;6.65;3.67;;;10.80;89.90;;;;;;5080004;28;20080;-68
2021/09/19 03:13:57;;;;;;;6.43;3.90;;;10.80;90.00;;;;;;5063325;28;20036;-68
2021/09/19 03:16:22;;;;;;;5.50;4.03;;;10.80;90.00;;;;;;5062979;28;20017;-68
2021/09/19 03:18:48;;;;;;;6.72;4.28;;;10.80;90.10;;;;;;5061962;28;20044;-68
2021/09/19 03:21:14;;;;;;;8.43;5.13;;;10.70;90.30;;;;;;5062784;28;20021;-68
2021/09/19 03:23:40;;;;;;;6.63;4.37;;;10.60;90.40;;;;;;5045480;28;20034;-68
2021/09/19 03:26:06;;;;;;;6.72;4.60;;;10.60;90.50;;;;;;5063052;28;20025;-67
2021/09/19 03:28:32;;;;;;;7.80;4.60;;;10.70;90.40;;;;;;5078379;28;20032;-67
2021/09/19 03:30:58;;;;;;;6.28;4.05;;;10.60;90.40;;;;;;5062633;28;20127;-68
2021/09/19 03:33:24;;;;;;;7.80;5.43;;;10.40;90.90;;;;;;5062728;28;20088;-68
2021/09/19 03:35:50;;;;;;;8.90;4.80;;;10.40;91.10;;;;;;5062816;28;20028;-68
2021/09/19 03:38:15;;;;;;;8.73;4.40;;;10.50;91.00;;;;;;5061663;28;20091;-69
2021/09/19 03:40:42;;;;;;;10.27;5.13;;;10.60;90.90;;;;;;5062121;28;20036;-68
2021/09/19 03:43:07;;;;;;;7.43;4.73;;;10.70;90.80;;;;;;5077274;28;20024;-68
2021/09/19 03:45:33;;;;;;;7.78;4.22;;;10.80;90.60;;;;;;5081496;28;20289;-68
2021/09/19 03:48:07;;;;;;;9.10;5.50;;;10.80;90.60;;;;;;5098079;28;20035;-68
2021/09/19 03:50:33;;;;;;;7.28;4.25;;;10.80;90.50;;;;;;5081846;28;20028;-68
2021/09/19 03:52:59;;;;;;;8.07;4.32;;;10.80;90.40;;;;;;5081203;28;20020;-68
2021/09/19 03:55:26;;;;;;;6.67;4.00;;;10.80;90.40;;;;;;5081498;28;20223;-67
2021/09/19 03:57:52;;;;;;;7.40;4.80;;;10.70;90.50;;;;;;5082486;28;20028;-68
2021/09/19 04:00:18;;;;;;;6.05;4.00;;;10.70;90.50;;;;;;5082226;28;20207;-68
2021/09/19 04:02:44;;;;;;;6.75;4.50;;;10.70;90.60;;;;;;5081226;28;20016;-68
2021/09/19 04:05:10;;;;;;;8.07;4.90;;;10.70;90.70;;;;;;5082144;28;20043;-68
2021/09/19 04:07:36;;;;;;;9.52;5.47;;;10.80;90.60;;;;;;5081148;28;20219;-68
2021/09/19 04:10:04;;;;;;;7.30;4.30;;;10.70;90.70;;;;;;5081275;28;20040;-68
2021/09/19 04:12:30;;;;;;;7.78;4.30;;;10.70;90.60;;;;;;5064600;28;20315;-68
2021/09/19 04:14:59;;;;;;;7.10;4.47;;;10.70;90.50;;;;;;5082353;28;20048;-68
2021/09/19 04:17:25;;;;;;;8.10;4.70;;;10.70;90.60;;;;;;5082147;28;20067;-68
2021/09/19 04:19:51;;;;;;;8.07;4.63;;;10.70;90.60;;;;;;5081094;28;20039;-67
2021/09/19 04:22:17;;;;;;;5.65;3.30;;;10.70;90.50;;;;;;5080275;28;20341;-68
2021/09/19 04:24:43;;;;;;;6.32;4.05;;;10.60;90.50;;;;;;5082112;28;20085;-67
2021/09/19 04:27:08;;;;;;;7.72;3.60;;;10.60;90.50;;;;;;5080951;28;20269;-68
2021/09/19 04:29:34;;;;;;;7.05;4.93;;;10.50;90.40;;;;;;5082220;28;20023;-68
2021/09/19 04:32:01;;;;;;;6.85;4.18;;;10.40;90.50;;;;;;5079966;28;20028;-68
2021/09/19 04:34:27;;;;;;;;;;;10.30;90.40;;;;;;5061742;28;20043;-68
2021/09/19 04:36:53;;;;;;;4.95;3.33;;;10.30;90.60;;;;;;5061552;28;19904;-68
2021/09/19 04:39:18;;;;;;;5.60;3.38;;;10.10;90.90;;;;;;5062118;28;20084;-68
2021/09/19 04:41:44;;;;;;;5.90;3.47;;;10.20;91.00;;;;;;5060663;28;20064;-68
2021/09/19 04:44:10;;;;;;;5.35;3.47;;;10.20;91.00;;;;;;5061923;28;20048;-68
2021/09/19 04:46:36;;;;;;;5.68;3.33;;;10.10;90.90;;;;;;5061729;28;20318;-68
2021/09/19 04:49:01;;;;;;;4.78;3.33;;;10.10;91.00;;;;;;5061918;28;20029;-68
2021/09/19 04:51:27;;;;;;;5.10;3.38;;;10.10;91.10;;;;;;5069373;28;20029;-67
2021/09/19 04:53:53;;;;;;;6.13;3.80;;;10.10;91.10;;;;;;5086011;28;20223;-68
2021/09/19 04:56:19;;;;;;;6.25;3.40;;;10.10;91.20;;;;;;5084157;28;20148;-68
2021/09/19 04:58:45;;;;;;;6.55;4.07;;;10.20;91.20;;;;;;5084717;28;20101;-68
2021/09/19 05:01:11;;;;;;;5.63;3.60;;;10.20;91.20;;;;;;5085599;28;20062;-68
2021/09/19 05:03:36;;;;;;;5.18;3.42;;;10.20;91.10;;;;;;5084967;28;20028;-68
2021/09/19 05:06:02;;;;;;;5.13;3.08;;;10.20;91.00;;;;;;5085833;28;20226;-68
2021/09/19 05:08:28;;;;;;;5.60;3.45;;;10.10;91.10;;;;;;5085586;28;20036;-67
2021/09/19 05:10:54;;;;;;;5.68;3.45;;;10.00;91.10;;;;;;5083856;28;20076;-66
2021/09/19 05:13:19;;;;;;;5.03;3.58;;;10.00;91.30;;;;;;5085661;28;20016;-67
2021/09/19 05:15:45;;;;;;;5.50;2.95;;;10.10;91.40;;;;;;5085445;28;20027;-68
2021/09/19 05:18:11;;;;;;;4.75;3.17;;;10.10;91.30;;;;;;5083816;28;20077;-69
2021/09/19 05:20:37;;;;;;;6.07;3.60;;;10.10;91.20;;;;;;5085239;28;20039;-68
2021/09/19 05:23:03;;;;;;;6.07;4.40;;;10.10;91.20;;;;;;5085202;28;20028;-69
2021/09/19 05:25:29;;;;;;;4.85;3.08;;;10.10;91.10;;;;;;5067716;28;20028;-68
2021/09/19 05:27:54;;;;;;;4.40;3.45;;;10.10;90.90;;;;;;5085147;28;20028;-68
2021/09/19 05:30:21;;;;;;;6.07;3.22;;;10.20;90.90;;;;;;5085149;28;20012;-68
2021/09/19 05:32:47;;;;;;;;;;;10.10;91.00;;;;;;5084350;28;20092;-68
2021/09/19 05:35:13;;;;;;;6.43;2.72;;;10.00;91.20;;;;;;5084638;28;19911;-68
2021/09/19 05:37:39;;;;;;;6.22;3.90;;;10.00;91.20;;;;;;5083884;28;20206;-69
2021/09/19 05:40:07;;;;;;;5.18;3.58;;;10.10;91.40;;;;;;5082878;28;20013;-69
2021/09/19 05:42:32;;;;;;;5.65;3.70;;;10.00;91.40;;;;;;5067131;28;20012;-68
2021/09/19 05:44:58;;;;;;;4.90;3.17;;;10.10;91.50;;;;;;5085038;28;20219;-68
2021/09/19 05:47:24;;;;;;;4.70;3.40;;;10.10;91.30;;;;;;5084911;28;20039;-68
2021/09/19 05:49:50;;;;;;;5.22;4.57;;;10.10;91.50;;;;;;5084856;28;20020;-68
2021/09/19 05:52:15;;;;;;;4.32;3.67;;;10.10;91.60;;;;;;5083790;28;20059;-69
2021/09/19 05:54:41;;;;;;;5.73;3.87;;;10.10;91.60;;;;;;5084936;28;20020;-68
2021/09/19 05:57:07;;;;;;;4.32;3.08;;;10.10;91.70;;;;;;5083076;28;20036;-68
2021/09/19 05:59:33;;;;;;;5.10;3.90;;;10.10;91.80;;;;;;5084759;28;20032;-68
2021/09/19 06:01:59;;;;;;;5.30;3.63;;;10.20;91.80;;;;;;5084135;28;20024;-68
2021/09/19 06:04:24;;;;;;;6.03;4.10;;;10.30;92.00;;;;;;5066196;28;20032;-69
2021/09/19 06:06:50;;;;;;;5.20;3.25;;;10.40;91.90;;;;;;5083776;28;20028;-68
2021/09/19 06:09:16;;;;;;;6.00;3.70;;;10.40;91.80;;;;;;5084276;28;20192;-68
2021/09/19 06:11:42;;;;;;;5.00;3.53;;;10.40;91.90;;;;;;5082629;28;20323;-68
2021/09/19 06:14:09;;;;;;;5.25;3.20;;;10.40;92.00;;;;;;5084162;28;20061;-68
2021/09/19 06:16:35;;;;;;;5.80;4.13;;;10.50;92.10;;;;;;5083315;28;20074;-68
2021/09/19 06:19:02;;;;;;;5.43;3.38;;;10.50;92.10;;;;;;5066156;28;20091;-68
2021/09/19 06:21:28;;;;;;;5.50;3.67;;;10.50;92.30;;;;;;5066463;28;20228;-68
2021/09/19 06:23:54;;;;;;;5.87;3.53;;;10.60;92.30;;;;;;5084429;28;20020;-68
2021/09/19 06:26:20;;;;;;;5.30;3.42;;;10.60;92.20;;;;;;5083681;28;20020;-68
2021/09/19 06:28:45;;;;;;;6.38;3.70;;;10.70;92.30;;;;;;5083857;28;20373;-68
2021/09/19 06:31:11;;;;;;;5.65;3.67;;;10.70;92.30;;;;;;5083956;28;20028;-68
2021/09/19 06:33:38;;;;;;;5.63;3.60;;;10.80;92.30;;;;;;5083862;28;20029;-68
2021/09/19 06:36:04;;;;;;;;;;;10.90;92.50;;;;;;5084568;28;20091;-68
2021/09/19 06:38:30;;;;;;;7.05;4.05;;;11.00;92.10;;;;;;5083875;28;19908;-67
2021/09/19 06:40:56;;;;;;;6.87;3.97;;;11.00;92.00;;;;;;5082553;28;20096;-68
2021/09/19 06:43:22;;;;;;;4.97;3.47;;;11.10;92.10;;;;;;5083655;28;20024;-68
2021/09/19 06:45:48;;;;;;;7.60;4.47;;;11.20;92.20;;;;;;5082736;28;20022;-68
2021/09/19 06:48:14;;;;;;;5.18;3.60;;;11.20;92.20;;;;;;5082608;28;20024;-68
2021/09/19 06:50:40;;;;;;;5.75;3.42;;;11.30;92.30;;;;;;5082759;28;20095;-69
2021/09/19 06:53:06;;;;;;;6.32;4.47;;;11.40;92.30;;;;;;5083581;28;20028;-70
2021/09/19 06:55:32;;;;;;;7.03;4.28;;;11.40;92.30;;;;;;5082659;28;20266;-68
2021/09/19 06:57:58;;;;;;;6.50;4.10;;;11.50;92.30;;;;;;5082481;28;20024;-68
2021/09/19 07:00:24;;;;;;;5.63;3.67;;;11.60;92.30;;;;;;5083403;28;20089;-68
2021/09/19 07:02:50;;;;;;;6.72;4.32;;;11.70;92.20;;;;;;5082284;28;20032;-68
2021/09/19 07:05:16;;;;;;;5.85;4.45;;;11.70;92.20;;;;;;5082643;28;20103;-68
2021/09/19 07:07:42;;;;;;;6.73;4.97;;;11.80;92.20;;;;;;5081768;28;20036;-68
2021/09/19 07:10:08;;;;;;;6.97;3.80;;;11.90;92.00;;;;;;5083499;28;20021;-68
2021/09/19 07:12:34;;;;;;;7.25;4.55;;;12.00;92.10;;;;;;5081945;28;20366;-68
2021/09/19 07:15:00;;;;;;;6.78;4.07;;;12.20;92.00;;;;;;5081064;28;20062;-68
2021/09/19 07:17:26;;;;;;;6.40;3.95;;;12.30;91.80;;;;;;5083244;28;20129;-68
2021/09/19 07:19:51;;;;;;;6.27;4.20;;;12.50;91.50;;;;;;5083276;28;20032;-68
2021/09/19 07:22:17;;;;;;;5.93;4.53;;;12.60;91.50;;;;;;5083006;28;20028;-68
2021/09/19 07:24:43;;;;;;;7.53;4.43;;;12.70;91.30;;;;;;5083217;28;20249;-67
2021/09/19 07:27:09;;;;;;;5.80;3.58;;;12.90;91.30;;;;;;5064790;28;20024;-68
2021/09/19 07:29:35;;;;;;;4.90;3.47;;;12.90;90.90;;;;;;5082920;28;20023;-68
2021/09/19 07:32:02;;;;;;;5.78;3.85;;;13.10;90.80;;;;;;5065177;28;20020;-68
2021/09/19 07:34:31;;;;;;;5.22;3.58;;;13.20;90.50;;;;;;5081862;28;20050;-68
2021/09/19 07:36:57;;;;;;;4.88;3.60;;;13.30;90.20;;;;;;5075585;28;20044;-68
2021/09/19 07:39:23;;;;;;;7.27;4.17;;;13.40;90.20;;;;;;5095657;28;20223;-68
2021/09/19 07:41:53;;;;;;;5.10;3.07;;;13.50;90.20;;;;;;5071247;28;20288;-68
2021/09/19 07:44:20;;;;;;;4.35;3.33;;;13.60;90.30;;;;;;5045528;28;20342;-69
2021/09/19 07:46:49;;;;;;;5.85;3.67;;;13.70;90.10;;;;;;5062652;28;20131;-68
2021/09/19 07:49:18;;;;;;;4.95;3.30;;;13.80;89.50;;;;;;5071818;28;20028;-69
2021/09/19 07:51:44;;;;;;;5.03;3.15;;;13.90;89.60;;;;;;5095383;28;20016;-68
2021/09/19 07:54:10;;;;;;;4.27;3.03;;;14.00;89.20;;;;;;5062666;28;20084;-68
2021/09/19 07:56:36;;;;;;;3.08;2.72;;;14.20;87.80;;;;;;5055173;28;20385;-67
2021/09/19 07:59:02;;;;;;;4.57;2.90;;;14.30;86.50;;;;;;5081086;28;20103;-67
2021/09/19 08:01:28;;;;;;;3.67;2.50;;;14.50;85.80;;;;;;5083074;28;20139;-68
2021/09/19 08:03:54;;;;;;;4.17;2.83;;;14.60;84.80;;;;;;5061361;28;20092;-68
2021/09/19 08:06:22;;;;;;;3.50;2.73;;;14.80;83.10;;;;;;5062419;28;20090;-69
2021/09/19 08:08:49;;;;;;;3.28;2.40;;;14.90;82.00;;;;;;5078977;28;20227;-68
2021/09/19 08:11:16;;;;;;;3.25;2.47;;;15.00;81.40;;;;;;5064248;28;20086;-68
2021/09/19 08:13:42;;;;;;;;;;;15.00;81.80;;;;;;5098455;28;20024;-68
2021/09/19 08:16:09;;;;;;;5.18;2.75;;;15.10;80.80;;;;;;5081302;28;19936;-68
2021/09/19 08:18:35;;;;;;;3.30;2.78;;;15.20;81.50;;;;;;5076819;28;20024;-68
2021/09/19 08:21:02;;;;;;;4.13;3.17;;;15.30;80.20;;;;;;5062000;28;20039;-68
2021/09/19 08:23:28;;;;;;;;;;;15.30;79.00;;;;;;5044771;28;20025;-68
2021/09/19 08:25:54;;;;;;;3.65;2.72;;;15.40;78.30;;;;;;5071481;28;20018;-68
2021/09/19 08:28:20;;;;;;;2.85;2.50;;;15.40;78.80;;;;;;5064057;28;20315;-69
2021/09/19 08:30:46;;;;;;;3.77;2.53;;;15.40;80.00;;;;;;5082059;28;20059;-69
2021/09/19 08:33:12;;;;;;;3.73;2.60;;;15.50;79.30;;;;;;5081328;28;20322;-69
2021/09/19 08:35:38;;;;;;;3.43;2.60;;;15.50;78.10;;;;;;5082056;28;20084;-68
2021/09/19 08:38:04;;;;;;;4.10;3.00;;;15.40;77.90;;;;;;5060244;28;20032;-77
2021/09/19 08:40:30;;;;;;;2.67;2.20;;;15.40;78.00;;;;;;5027219;28;20033;-72
2021/09/19 08:42:56;;;;;;;3.20;2.27;;;15.40;78.60;;;;;;5090465;28;20286;-74
2021/09/19 08:45:23;;;;;;;3.00;2.60;;;15.40;77.20;;;;;;5081862;28;20032;-74
2021/09/19 08:47:50;;;;;;;;;;;15.40;77.50;;;;;;5048021;28;20021;-75
2021/09/19 08:50:16;;;;;;;2.63;2.20;;;15.40;77.90;;;;;;5081776;28;19942;-73
2021/09/19 08:52:42;;;;;;;3.22;2.35;;;15.40;78.50;;;;;;5080301;28;20343;-74
2021/09/19 08:55:09;;;;;;;2.75;2.40;;;15.40;78.90;;;;;;5080635;28;20039;-72
2021/09/19 08:57:35;;;;;;;3.35;2.28;;;15.50;77.80;;;;;;5081696;28;20059;-77
2021/09/19 09:00:16;;;;;;;3.33;2.17;;;15.40;77.70;;;;;;5047411;28;20050;-73
2021/09/19 09:02:54;;;;;;;2.80;2.22;;;15.50;77.20;;;;;;5049093;28;20338;-72
2021/09/19 09:05:21;;;;;;;;;;;15.60;77.30;;;;;;5080326;28;20016;-76
2021/09/19 09:07:50;;;;;;;2.50;2.20;;;15.60;75.70;;;;;;5053536;28;19927;-72
2021/09/19 09:10:16;;;;;;;2.83;2.50;;;15.60;76.20;;;;;;5075466;28;20323;-73
2021/09/19 09:12:42;;;;;;;3.13;2.50;;;15.60;76.30;;;;;;5096921;28;20085;-72
2021/09/19 09:15:09;;;;;;;3.17;2.50;;;15.70;74.60;;;;;;5079595;28;20083;-73
2021/09/19 09:17:34;;;;;;;2.67;2.00;;;15.70;75.70;;;;;;5097096;28;20099;-74
2021/09/19 09:20:02;;;;;;;3.10;2.50;;;15.70;75.40;;;;;;5080591;28;20040;-72
2021/09/19 09:22:32;;;;;;;2.80;2.13;;;15.80;74.90;;;;;;5080335;28;20035;-72
2021/09/19 09:25:16;;;;;;;2.92;2.40;;;15.90;75.50;;;;;;5080525;28;20024;-71
2021/09/19 09:27:47;;;;;;;3.25;2.15;;;16.00;75.20;;;;;;5079691;28;20074;-71
2021/09/19 09:30:24;;;;;;;3.05;2.00;;;16.10;74.20;;;;;;5079859;28;20017;-72
2021/09/19 09:33:00;;;;;;;2.72;2.10;;;16.30;72.90;;;;;;5064893;28;20315;-74
2021/09/19 09:35:38;;;;;;;4.70;2.78;;;16.50;73.30;;;;;;5063801;28;20023;-73
2021/09/19 09:38:24;;;;;;;2.53;2.05;;;16.50;74.20;;;;;;5080949;28;20052;-73
2021/09/19 09:40:51;;;;;;;2.13;1.92;;;16.60;74.20;;;;;;5079352;28;20053;-72
2021/09/19 09:43:18;;;;;;;2.40;2.15;;;16.70;72.60;;;;;;5068508;28;20101;-74
2021/09/19 09:45:48;;;;;;;2.45;1.80;;;16.80;72.80;;;;;;5050589;28;20028;-71
2021/09/19 09:48:38;;;;;;;3.00;2.63;;;16.80;71.80;;;;;;5099893;28;20088;-75
2021/09/19 09:51:17;;;;;;;3.28;2.03;;;17.10;73.90;;;;;;5082579;28;20031;-74
2021/09/19 09:53:43;;;;;;;2.42;2.15;;;17.30;71.70;;;;;;5098499;28;20023;-73
2021/09/19 09:56:09;;;;;;;2.03;1.80;;;17.40;71.40;;;;;;5100337;28;20017;-69
2021/09/19 09:58:35;;;;;;;2.00;1.70;;;17.60;70.10;;;;;;5100235;28;20043;-70
2021/09/19 10:01:01;;;;;;;2.38;1.90;;;17.50;70.20;;;;;;5099824;28;20024;-69
2021/09/19 10:03:27;;;;;;;2.20;1.93;;;17.50;69.90;;;;;;5083685;28;20039;-69
2021/09/19 10:05:52;;;;;;;2.40;2.00;;;17.60;68.60;;;;;;5100319;28;20025;-69
2021/09/19 10:08:21;;;;;;;2.40;2.20;;;17.60;68.00;;;;;;5099922;28;20091;-71
2021/09/19 10:10:47;;;;;;;2.28;1.73;;;17.70;68.00;;;;;;5091957;28;20330;-70
2021/09/19 10:13:15;;;;;;;3.25;1.67;;;17.90;66.60;;;;;;5059987;28;20029;-70
2021/09/19 10:15:42;;;;;;;3.55;2.65;;;17.90;67.90;;;;;;5082799;28;20024;-72
2021/09/19 10:18:11;;;;;;;1.63;1.50;;;18.00;66.90;;;;;;5099663;28;20032;-73
2021/09/19 10:20:43;;;;;;;4.82;1.60;;;18.00;67.40;;;;;;5082557;28;20024;-74
2021/09/19 10:23:29;;;;;;;3.28;1.50;;;17.90;68.20;;;;;;5098751;28;20024;-74
2021/09/19 10:25:57;;;;;;;1.33;1.23;;;18.00;68.60;;;;;;5098434;28;20027;-76
2021/09/19 10:28:44;;;;;;;2.50;1.88;;;18.10;68.10;;;;;;5082589;28;20028;-74
2021/09/19 10:31:15;;;;;;;1.98;1.73;;;18.20;66.50;;;;;;5045896;28;20197;-72
2021/09/19 10:34:07;;;;;;;2.05;1.85;;;18.20;66.10;;;;;;5063801;28;20102;-71
2021/09/19 10:36:45;;;;;;;1.73;1.63;;;18.30;65.50;;;;;;5046676;28;20021;-72
2021/09/19 10:39:37;;;;;;;2.10;1.73;;;18.30;67.90;;;;;;5064049;28;20024;-69
2021/09/19 10:42:09;;;;;;;1.60;1.23;;;18.20;63.90;;;;;;5068881;28;20032;-70
2021/09/19 10:44:55;;;;;;;1.90;1.60;;;18.30;65.10;;;;;;5089593;28;20083;-70
2021/09/19 10:47:39;;;;;;;1.60;1.50;;;18.20;66.80;;;;;;5083032;28;20035;-71
2021/09/19 10:50:14;;;;;;;2.17;1.60;;;18.20;67.50;;;;;;5083250;28;20031;-71
2021/09/19 10:52:42;;;;;;;2.20;1.42;;;18.20;67.00;;;;;;5082192;28;20025;-72
2021/09/19 10:55:23;;;;;;;1.85;1.73;;;18.30;67.30;;;;;;5065898;28;20024;-74
2021/09/19 10:58:04;;;;;;;2.35;1.80;;;18.60;65.40;;;;;;5083411;28;20044;-73
2021/09/19 11:00:32;;;;;;;1.67;1.40;;;18.70;64.10;;;;;;5067007;28;20073;-72
2021/09/19 11:03:27;;;;;;;2.05;1.80;;;18.70;64.20;;;;;;5065698;28;20070;-70
2021/09/19 11:05:53;;;;;;;3.05;1.83;;;18.60;64.80;;;;;;5065233;28;20028;-71
2021/09/19 11:08:18;;;;;;;1.90;1.70;;;18.70;63.20;;;;;;5065381;28;20061;-71
2021/09/19 11:10:51;;;;;;;1.53;1.40;;;18.70;63.50;;;;;;5083080;28;20280;-69
2021/09/19 11:13:20;;;;;;;2.00;1.80;;;18.90;62.90;;;;;;5073405;28;20036;-67
2021/09/19 11:16:04;;;;;;;1.73;1.50;;;19.10;62.60;;;;;;5082796;28;20017;-75
2021/09/19 11:18:39;;;;;;;1.80;1.70;;;19.20;63.60;;;;;;5098964;28;20108;-71
2021/09/19 11:21:11;;;;;;;2.20;2.00;;;19.50;62.60;;;;;;5082421;28;20061;-72
2021/09/19 11:23:48;;;;;;;2.17;1.60;;;19.60;60.80;;;;;;5081843;28;20032;-73
2021/09/19 11:26:22;;;;;;;2.17;1.95;;;19.80;60.10;;;;;;5065672;28;20223;-73
2021/09/19 11:28:49;;;;;;;1.50;1.40;;;19.90;60.70;;;;;;5049413;28;20056;-73
2021/09/19 11:31:16;;;;;;;1.30;1.20;;;19.90;59.30;;;;;;5047630;28;20028;-72
2021/09/19 11:33:42;;;;;;;;;;;20.10;58.30;;;;;;5064853;28;20028;-73
2021/09/19 11:36:11;;;;;;;4.68;3.00;;;19.90;59.30;;;;;;5081721;28;19904;-72
2021/09/19 11:38:55;;;;;;;3.97;3.03;;;19.90;59.00;;;;;;5065183;28;20199;-73
2021/09/19 11:41:21;;;;;;;1.45;1.35;;;19.60;59.60;;;;;;5082251;28;20227;-72
2021/09/19 11:43:50;;;;;;;1.75;1.35;;;19.70;58.70;;;;;;5065337;28;20301;-73
2021/09/19 11:46:18;;;;;;;1.77;1.60;;;20.00;60.10;;;;;;5093913;28;20024;-73
2021/09/19 11:48:44;;;;;;;1.40;1.27;;;20.30;59.00;;;;;;5081222;28;20215;-73
2021/09/19 11:51:15;;;;;;;1.50;1.30;;;20.60;58.40;;;;;;5097902;28;20308;-73
2021/09/19 11:53:52;;;;;;;1.02;1.00;;;20.80;55.60;;;;;;5097752;28;20044;-73
2021/09/19 11:56:18;;;;;;;2.17;1.58;;;20.80;55.00;;;;;;5097634;28;20033;-72
2021/09/19 11:58:45;;;;;;;1.30;1.20;;;20.70;56.00;;;;;;5082254;28;20271;-73
2021/09/19 12:01:10;;;;;;;1.42;1.33;;;20.30;55.50;;;;;;5085563;28;20032;-72
2021/09/19 12:03:36;;;;;;;1.90;1.80;;;20.00;58.10;;;;;;5081802;28;20545;-72
2021/09/19 12:06:02;;;;;;;1.80;1.50;;;19.90;58.50;;;;;;5081032;28;20039;-72
2021/09/19 12:08:30;;;;;;;2.83;1.33;;;19.60;58.40;;;;;;5064558;28;20252;-73
2021/09/19 12:10:57;;;;;;;1.63;1.48;;;19.40;59.70;;;;;;5064228;28;20252;-72
2021/09/19 12:13:28;;;;;;;1.50;1.33;;;19.10;59.20;;;;;;5079687;28;20020;-73
2021/09/19 12:16:03;;;;;;;3.83;1.50;;;18.90;61.20;;;;;;5066091;28;20012;-72
2021/09/19 12:18:34;;;;;;;2.20;2.00;;;18.70;61.30;;;;;;5064816;28;20036;-73
2021/09/19 12:21:04;;;;;;;2.08;1.77;;;18.60;62.30;;;;;;5080553;28;20036;-73
2021/09/19 12:23:48;;;;;;;1.58;1.45;;;18.70;62.60;;;;;;5081035;28;20017;-73
2021/09/19 12:26:25;;;;;;;1.70;1.60;;;18.70;63.00;;;;;;5080706;28;20200;-72
2021/09/19 12:29:06;;;;;;;;;;;18.80;62.60;;;;;;5081396;28;20047;-72
2021/09/19 12:31:58;;;;;;;2.78;2.17;;;18.80;61.80;;;;;;5080683;28;19975;-73
2021/09/19 12:34:26;;;;;;;3.30;2.00;;;19.10;60.90;;;;;;5060675;28;20223;-73
2021/09/19 12:36:54;;;;;;;2.78;2.15;;;19.10;60.90;;;;;;5081765;28;20246;-72
2021/09/19 12:39:31;;;;;;;3.13;1.98;;;19.00;61.90;;;;;;5064202;28;20020;-72
2021/09/19 12:41:59;;;;;;;;;;;19.00;62.40;;;;;;5079422;28;20405;-72
2021/09/19 12:44:30;;;;;;;2.28;2.05;;;19.00;61.40;;;;;;5064353;28;19943;-72
2021/09/19 12:47:03;;;;;;;1.83;1.73;;;19.00;61.90;;;;;;5088761;28;20020;-72
2021/09/19 12:49:34;;;;;;;2.10;1.90;;;18.90;62.00;;;;;;5055515;28;20027;-72
2021/09/19 12:52:16;;;;;;;1.70;1.60;;;18.60;61.60;;;;;;5081495;28;20319;-73
2021/09/19 12:54:52;;;;;;;2.38;2.15;;;18.50;63.50;;;;;;5061601;28;20029;-76